sensor_id;sensor_type;location;lat;lon;timestamp;temperature;humidity
61004;DHT22;46889;37.310;13.582;2024-03-17T00:00:38;14.10;99.90
61004;DHT22;46889;37.310;13.582;2024-03-17T00:03:06;14.10;99.90
61004;DHT22;46889;37.310;13.582;2024-03-17T00:05:35;14.10;99.90
61004;DHT22;46889;37.310;13.582;2024-03-17T00:08:02;14.10;99.90
61004;DHT22;46889;37.310;13.582;2024-03-17T00:10:33;14.10;99.90
61004;DHT22;46889;37.310;13.582;2024-03-17T00:13:00;14.00;99.90
61004;DHT22;46889;37.310;13.582;2024-03-17T00:15:26;14.00;99.90
61004;DHT22;46889;37.310;13.582;2024-03-17T00:17:53;14.00;99.90
61004;DHT22;46889;37.310;13.582;2024-03-17T00:20:20;14.00;99.90
61004;DHT22;46889;37.310;13.582;2024-03-17T00:22:50;14.00;99.90
61004;DHT22;46889;37.310;13.582;2024-03-17T00:25:19;13.90;99.90
61004;DHT22;46889;37.310;13.582;2024-03-17T00:27:45;13.90;99.90
61004;DHT22;46889;37.310;13.582;2024-03-17T00:30:13;13.90;99.90
61004;DHT22;46889;37.310;13.582;2024-03-17T00:32:42;13.90;99.90
61004;DHT22;46889;37.310;13.582;2024-03-17T00:35:11;13.80;99.90
61004;DHT22;46889;37.310;13.582;2024-03-17T00:37:44;13.70;99.90
61004;DHT22;46889;37.310;13.582;2024-03-17T00:40:15;13.60;99.90
61004;DHT22;46889;37.310;13.582;2024-03-17T00:42:43;13.50;99.90
61004;DHT22;46889;37.310;13.582;2024-03-17T00:45:11;13.50;99.90
61004;DHT22;46889;37.310;13.582;2024-03-17T00:47:39;13.30;99.90
61004;DHT22;46889;37.310;13.582;2024-03-17T00:50:08;13.20;99.90
61004;DHT22;46889;37.310;13.582;2024-03-17T00:52:38;13.10;99.90
61004;DHT22;46889;37.310;13.582;2024-03-17T00:55:04;13.10;99.90
61004;DHT22;46889;37.310;13.582;2024-03-17T00:57:31;13.00;99.90
61004;DHT22;46889;37.310;13.582;2024-03-17T00:59:58;13.00;99.90
61004;DHT22;46889;37.310;13.582;2024-03-17T01:02:31;13.00;99.90
61004;DHT22;46889;37.310;13.582;2024-03-17T01:04:59;12.90;99.90
61004;DHT22;46889;37.310;13.582;2024-03-17T01:07:25;12.90;99.90
61004;DHT22;46889;37.310;13.582;2024-03-17T01:09:52;13.00;99.90
61004;DHT22;46889;37.310;13.582;2024-03-17T01:12:20;13.00;99.90
61004;DHT22;46889;37.310;13.582;2024-03-17T01:14:48;13.10;99.90
61004;DHT22;46889;37.310;13.582;2024-03-17T01:17:14;13.10;99.90
61004;DHT22;46889;37.310;13.582;2024-03-17T01:19:41;13.20;99.90
61004;DHT22;46889;37.310;13.582;2024-03-17T01:22:08;13.20;99.90
61004;DHT22;46889;37.310;13.582;2024-03-17T01:24:34;13.30;99.90
61004;DHT22;46889;37.310;13.582;2024-03-17T01:27:05;13.30;99.90
61004;DHT22;46889;37.310;13.582;2024-03-17T01:29:32;13.30;99.90
61004;DHT22;46889;37.310;13.582;2024-03-17T01:31:59;13.30;99.90
61004;DHT22;46889;37.310;13.582;2024-03-17T01:34:25;13.30;99.90
61004;DHT22;46889;37.310;13.582;2024-03-17T01:36:51;13.30;99.90
61004;DHT22;46889;37.310;13.582;2024-03-17T01:39:17;13.30;99.90
61004;DHT22;46889;37.310;13.582;2024-03-17T01:41:45;13.40;99.90
61004;DHT22;46889;37.310;13.582;2024-03-17T01:44:28;13.40;99.90
61004;DHT22;46889;37.310;13.582;2024-03-17T01:46:55;13.30;99.90
61004;DHT22;46889;37.310;13.582;2024-03-17T01:49:22;13.30;99.90
61004;DHT22;46889;37.310;13.582;2024-03-17T01:51:55;13.30;99.90
61004;DHT22;46889;37.310;13.582;2024-03-17T01:54:22;13.30;99.90
61004;DHT22;46889;37.310;13.582;2024-03-17T01:56:52;13.20;99.90
61004;DHT22;46889;37.310;13.582;2024-03-17T01:59:18;13.20;99.90
61004;DHT22;46889;37.310;13.582;2024-03-17T02:01:45;13.30;99.90
61004;DHT22;46889;37.310;13.582;2024-03-17T02:04:11;13.20;99.90
61004;DHT22;46889;37.310;13.582;2024-03-17T02:06:37;13.20;99.90
61004;DHT22;46889;37.310;13.582;2024-03-17T02:09:04;13.30;99.90
61004;DHT22;46889;37.310;13.582;2024-03-17T02:11:32;13.30;99.90
61004;DHT22;46889;37.310;13.582;2024-03-17T02:14:00;13.30;99.90
61004;DHT22;46889;37.310;13.582;2024-03-17T02:16:32;13.20;99.90
61004;DHT22;46889;37.310;13.582;2024-03-17T02:18:58;13.20;99.90
61004;DHT22;46889;37.310;13.582;2024-03-17T02:21:25;13.20;99.90
61004;DHT22;46889;37.310;13.582;2024-03-17T02:23:53;13.10;99.90
61004;DHT22;46889;37.310;13.582;2024-03-17T02:26:21;13.10;99.90
61004;DHT22;46889;37.310;13.582;2024-03-17T02:28:49;13.10;99.90
61004;DHT22;46889;37.310;13.582;2024-03-17T02:31:16;13.10;99.90
61004;DHT22;46889;37.310;13.582;2024-03-17T02:33:43;13.20;99.90
61004;DHT22;46889;37.310;13.582;2024-03-17T02:36:10;13.10;99.90
61004;DHT22;46889;37.310;13.582;2024-03-17T02:38:41;13.10;99.90
61004;DHT22;46889;37.310;13.582;2024-03-17T02:41:26;13.10;99.90
61004;DHT22;46889;37.310;13.582;2024-03-17T02:43:52;13.10;99.90
61004;DHT22;46889;37.310;13.582;2024-03-17T02:46:19;13.20;99.90
61004;DHT22;46889;37.310;13.582;2024-03-17T02:48:49;13.10;99.90
61004;DHT22;46889;37.310;13.582;2024-03-17T02:51:16;13.00;99.90
61004;DHT22;46889;37.310;13.582;2024-03-17T02:53:44;13.00;99.90
61004;DHT22;46889;37.310;13.582;2024-03-17T02:56:11;13.00;99.90
61004;DHT22;46889;37.310;13.582;2024-03-17T02:58:38;12.90;99.90
61004;DHT22;46889;37.310;13.582;2024-03-17T03:01:07;12.90;99.90
61004;DHT22;46889;37.310;13.582;2024-03-17T03:03:36;12.90;99.90
61004;DHT22;46889;37.310;13.582;2024-03-17T03:06:04;12.90;99.90
61004;DHT22;46889;37.310;13.582;2024-03-17T03:08:41;12.90;99.90
61004;DHT22;46889;37.310;13.582;2024-03-17T03:11:09;12.80;99.90
61004;DHT22;46889;37.310;13.582;2024-03-17T03:13:41;12.80;99.90
61004;DHT22;46889;37.310;13.582;2024-03-17T03:16:10;12.70;99.90
61004;DHT22;46889;37.310;13.582;2024-03-17T03:18:37;12.70;99.90
61004;DHT22;46889;37.310;13.582;2024-03-17T03:21:04;12.70;99.90
61004;DHT22;46889;37.310;13.582;2024-03-17T03:23:31;12.70;99.90
61004;DHT22;46889;37.310;13.582;2024-03-17T03:26:02;12.80;99.90
61004;DHT22;46889;37.310;13.582;2024-03-17T03:28:30;12.80;99.90
61004;DHT22;46889;37.310;13.582;2024-03-17T03:30:57;12.80;99.90
61004;DHT22;46889;37.310;13.582;2024-03-17T03:33:23;12.80;99.90
61004;DHT22;46889;37.310;13.582;2024-03-17T03:35:50;12.80;99.90
61004;DHT22;46889;37.310;13.582;2024-03-17T03:38:16;12.80;99.90
61004;DHT22;46889;37.310;13.582;2024-03-17T03:40:43;12.70;99.90
61004;DHT22;46889;37.310;13.582;2024-03-17T03:43:10;12.60;99.90
61004;DHT22;46889;37.310;13.582;2024-03-17T03:45:39;12.60;99.90
61004;DHT22;46889;37.310;13.582;2024-03-17T03:48:06;12.60;99.90
61004;DHT22;46889;37.310;13.582;2024-03-17T03:50:34;12.50;99.90
61004;DHT22;46889;37.310;13.582;2024-03-17T03:53:01;12.50;99.90
61004;DHT22;46889;37.310;13.582;2024-03-17T03:55:28;12.50;99.90
61004;DHT22;46889;37.310;13.582;2024-03-17T03:57:55;12.50;99.90
61004;DHT22;46889;37.310;13.582;2024-03-17T04:00:21;12.50;99.90
61004;DHT22;46889;37.310;13.582;2024-03-17T04:02:49;12.60;99.90
61004;DHT22;46889;37.310;13.582;2024-03-17T04:05:19;12.60;99.90
61004;DHT22;46889;37.310;13.582;2024-03-17T04:07:46;12.60;99.90
61004;DHT22;46889;37.310;13.582;2024-03-17T04:10:14;12.60;99.90
61004;DHT22;46889;37.310;13.582;2024-03-17T04:12:41;12.70;99.90
61004;DHT22;46889;37.310;13.582;2024-03-17T04:15:08;12.70;99.90
61004;DHT22;46889;37.310;13.582;2024-03-17T04:17:39;12.60;99.90
61004;DHT22;46889;37.310;13.582;2024-03-17T04:20:05;12.70;99.90
61004;DHT22;46889;37.310;13.582;2024-03-17T04:22:35;12.70;99.90
61004;DHT22;46889;37.310;13.582;2024-03-17T04:25:01;12.70;99.90
61004;DHT22;46889;37.310;13.582;2024-03-17T04:27:29;12.70;99.90
61004;DHT22;46889;37.310;13.582;2024-03-17T04:29:58;12.70;99.90
61004;DHT22;46889;37.310;13.582;2024-03-17T04:32:25;12.70;99.90
61004;DHT22;46889;37.310;13.582;2024-03-17T04:34:54;12.80;99.90
61004;DHT22;46889;37.310;13.582;2024-03-17T04:37:22;12.80;99.90
61004;DHT22;46889;37.310;13.582;2024-03-17T04:39:49;12.80;99.90
61004;DHT22;46889;37.310;13.582;2024-03-17T04:42:17;12.80;99.90
61004;DHT22;46889;37.310;13.582;2024-03-17T04:44:47;12.80;99.90
61004;DHT22;46889;37.310;13.582;2024-03-17T04:47:13;12.80;99.90
61004;DHT22;46889;37.310;13.582;2024-03-17T04:49:40;12.70;99.90
61004;DHT22;46889;37.310;13.582;2024-03-17T04:52:09;12.70;99.90
61004;DHT22;46889;37.310;13.582;2024-03-17T04:54:35;12.70;99.90
61004;DHT22;46889;37.310;13.582;2024-03-17T04:57:01;12.70;99.90
61004;DHT22;46889;37.310;13.582;2024-03-17T04:59:28;12.70;99.90
61004;DHT22;46889;37.310;13.582;2024-03-17T05:01:55;12.70;99.90
61004;DHT22;46889;37.310;13.582;2024-03-17T05:04:21;12.70;99.90
61004;DHT22;46889;37.310;13.582;2024-03-17T05:06:49;12.70;99.90
61004;DHT22;46889;37.310;13.582;2024-03-17T05:09:18;12.70;99.90
61004;DHT22;46889;37.310;13.582;2024-03-17T05:11:44;12.70;99.90
61004;DHT22;46889;37.310;13.582;2024-03-17T05:14:11;12.70;99.90
61004;DHT22;46889;37.310;13.582;2024-03-17T05:16:37;12.70;99.90
61004;DHT22;46889;37.310;13.582;2024-03-17T05:19:04;12.80;99.90
61004;DHT22;46889;37.310;13.582;2024-03-17T05:21:30;12.70;99.90
61004;DHT22;46889;37.310;13.582;2024-03-17T05:24:02;12.70;99.90
61004;DHT22;46889;37.310;13.582;2024-03-17T05:26:28;12.70;99.90
61004;DHT22;46889;37.310;13.582;2024-03-17T05:28:57;12.80;99.90
61004;DHT22;46889;37.310;13.582;2024-03-17T05:31:23;12.90;99.90
61004;DHT22;46889;37.310;13.582;2024-03-17T05:33:49;13.00;99.90
61004;DHT22;46889;37.310;13.582;2024-03-17T05:36:17;13.10;99.90
61004;DHT22;46889;37.310;13.582;2024-03-17T05:38:45;13.10;99.90
61004;DHT22;46889;37.310;13.582;2024-03-17T05:41:12;13.20;99.90
61004;DHT22;46889;37.310;13.582;2024-03-17T05:43:38;13.30;99.90
61004;DHT22;46889;37.310;13.582;2024-03-17T05:46:06;13.40;99.90
61004;DHT22;46889;37.310;13.582;2024-03-17T05:48:37;13.40;99.90
61004;DHT22;46889;37.310;13.582;2024-03-17T05:51:10;13.50;99.90
61004;DHT22;46889;37.310;13.582;2024-03-17T05:53:39;13.60;99.90
61004;DHT22;46889;37.310;13.582;2024-03-17T05:56:14;13.90;99.90
61004;DHT22;46889;37.310;13.582;2024-03-17T05:59:00;14.70;99.90
61004;DHT22;46889;37.310;13.582;2024-03-17T06:01:46;15.80;99.90
61004;DHT22;46889;37.310;13.582;2024-03-17T06:04:16;17.20;99.90
61004;DHT22;46889;37.310;13.582;2024-03-17T06:06:43;17.90;99.90
61004;DHT22;46889;37.310;13.582;2024-03-17T06:09:09;18.20;99.90
61004;DHT22;46889;37.310;13.582;2024-03-17T06:11:36;18.70;99.90
61004;DHT22;46889;37.310;13.582;2024-03-17T06:14:02;19.20;99.90
61004;DHT22;46889;37.310;13.582;2024-03-17T06:16:31;20.00;99.90
61004;DHT22;46889;37.310;13.582;2024-03-17T06:18:57;20.70;99.90
61004;DHT22;46889;37.310;13.582;2024-03-17T06:21:25;21.20;99.90
61004;DHT22;46889;37.310;13.582;2024-03-17T06:23:53;21.30;99.90
61004;DHT22;46889;37.310;13.582;2024-03-17T06:26:19;22.20;99.90
61004;DHT22;46889;37.310;13.582;2024-03-17T06:28:47;23.10;99.90
61004;DHT22;46889;37.310;13.582;2024-03-17T06:31:13;23.50;99.90
61004;DHT22;46889;37.310;13.582;2024-03-17T06:33:39;23.30;99.90
61004;DHT22;46889;37.310;13.582;2024-03-17T06:36:06;23.40;99.90
61004;DHT22;46889;37.310;13.582;2024-03-17T06:38:50;23.50;99.90
61004;DHT22;46889;37.310;13.582;2024-03-17T06:41:17;23.00;99.90
61004;DHT22;46889;37.310;13.582;2024-03-17T06:43:43;23.20;99.90
61004;DHT22;46889;37.310;13.582;2024-03-17T06:46:10;23.70;99.90
61004;DHT22;46889;37.310;13.582;2024-03-17T06:48:36;23.70;99.90
61004;DHT22;46889;37.310;13.582;2024-03-17T06:51:02;23.30;99.90
61004;DHT22;46889;37.310;13.582;2024-03-17T06:53:29;22.90;99.90
61004;DHT22;46889;37.310;13.582;2024-03-17T06:55:56;23.00;99.90
61004;DHT22;46889;37.310;13.582;2024-03-17T06:58:25;22.70;99.90
61004;DHT22;46889;37.310;13.582;2024-03-17T07:00:59;22.80;99.90
61004;DHT22;46889;37.310;13.582;2024-03-17T07:03:26;23.50;99.90
61004;DHT22;46889;37.310;13.582;2024-03-17T07:06:00;23.90;99.90
61004;DHT22;46889;37.310;13.582;2024-03-17T07:08:30;24.30;99.90
61004;DHT22;46889;37.310;13.582;2024-03-17T07:11:04;23.70;99.90
61004;DHT22;46889;37.310;13.582;2024-03-17T07:13:32;23.10;99.90
61004;DHT22;46889;37.310;13.582;2024-03-17T07:16:00;22.50;99.90
61004;DHT22;46889;37.310;13.582;2024-03-17T07:18:28;22.60;99.90
61004;DHT22;46889;37.310;13.582;2024-03-17T07:21:10;23.10;99.90
61004;DHT22;46889;37.310;13.582;2024-03-17T07:23:37;23.00;99.90
61004;DHT22;46889;37.310;13.582;2024-03-17T07:26:04;23.10;99.90
61004;DHT22;46889;37.310;13.582;2024-03-17T07:28:31;23.20;99.90
61004;DHT22;46889;37.310;13.582;2024-03-17T07:30:58;24.30;99.90
61004;DHT22;46889;37.310;13.582;2024-03-17T07:33:29;25.10;99.90
61004;DHT22;46889;37.310;13.582;2024-03-17T07:35:57;25.90;99.90
61004;DHT22;46889;37.310;13.582;2024-03-17T07:38:27;25.50;99.90
61004;DHT22;46889;37.310;13.582;2024-03-17T07:41:07;25.20;99.90
61004;DHT22;46889;37.310;13.582;2024-03-17T07:43:35;25.50;99.90
61004;DHT22;46889;37.310;13.582;2024-03-17T07:46:03;25.30;99.90
61004;DHT22;46889;37.310;13.582;2024-03-17T07:48:31;24.20;99.90
61004;DHT22;46889;37.310;13.582;2024-03-17T07:51:02;23.40;99.90
61004;DHT22;46889;37.310;13.582;2024-03-17T07:53:33;22.90;99.90
61004;DHT22;46889;37.310;13.582;2024-03-17T07:56:04;22.30;99.90
61004;DHT22;46889;37.310;13.582;2024-03-17T07:58:38;22.00;99.90
61004;DHT22;46889;37.310;13.582;2024-03-17T08:01:09;21.60;99.90
61004;DHT22;46889;37.310;13.582;2024-03-17T08:03:45;21.60;99.90
61004;DHT22;46889;37.310;13.582;2024-03-17T08:06:20;21.60;99.90
61004;DHT22;46889;37.310;13.582;2024-03-17T08:08:46;21.40;99.90
61004;DHT22;46889;37.310;13.582;2024-03-17T08:11:12;21.20;99.90
61004;DHT22;46889;37.310;13.582;2024-03-17T08:13:39;21.30;99.90
61004;DHT22;46889;37.310;13.582;2024-03-17T08:16:07;21.00;99.90
61004;DHT22;46889;37.310;13.582;2024-03-17T08:18:36;20.90;99.90
61004;DHT22;46889;37.310;13.582;2024-03-17T08:21:03;21.20;99.90
61004;DHT22;46889;37.310;13.582;2024-03-17T08:23:33;21.10;99.90
61004;DHT22;46889;37.310;13.582;2024-03-17T08:26:01;20.80;99.90
61004;DHT22;46889;37.310;13.582;2024-03-17T08:28:28;20.50;99.90
61004;DHT22;46889;37.310;13.582;2024-03-17T08:30:56;20.30;99.90
61004;DHT22;46889;37.310;13.582;2024-03-17T08:33:22;20.20;99.90
61004;DHT22;46889;37.310;13.582;2024-03-17T08:36:00;20.30;99.90
61004;DHT22;46889;37.310;13.582;2024-03-17T08:38:28;20.20;99.90
61004;DHT22;46889;37.310;13.582;2024-03-17T08:40:55;20.10;99.90
61004;DHT22;46889;37.310;13.582;2024-03-17T08:43:24;20.10;99.90
61004;DHT22;46889;37.310;13.582;2024-03-17T08:46:07;20.10;99.90
61004;DHT22;46889;37.310;13.582;2024-03-17T08:48:39;19.90;99.90
61004;DHT22;46889;37.310;13.582;2024-03-17T08:51:07;20.10;99.90
61004;DHT22;46889;37.310;13.582;2024-03-17T08:53:34;20.40;99.90
61004;DHT22;46889;37.310;13.582;2024-03-17T08:56:00;20.40;99.90
61004;DHT22;46889;37.310;13.582;2024-03-17T08:58:26;20.40;99.90
61004;DHT22;46889;37.310;13.582;2024-03-17T09:00:53;20.10;99.90
61004;DHT22;46889;37.310;13.582;2024-03-17T09:03:19;20.30;99.90
61004;DHT22;46889;37.310;13.582;2024-03-17T09:05:46;20.30;99.90
61004;DHT22;46889;37.310;13.582;2024-03-17T09:08:23;19.90;99.90
61004;DHT22;46889;37.310;13.582;2024-03-17T09:10:52;19.90;99.90
61004;DHT22;46889;37.310;13.582;2024-03-17T09:13:20;19.70;99.90
61004;DHT22;46889;37.310;13.582;2024-03-17T09:15:53;19.90;99.90
61004;DHT22;46889;37.310;13.582;2024-03-17T09:18:19;19.90;99.90
61004;DHT22;46889;37.310;13.582;2024-03-17T09:20:46;20.00;99.90
61004;DHT22;46889;37.310;13.582;2024-03-17T09:23:12;20.20;99.90
61004;DHT22;46889;37.310;13.582;2024-03-17T09:25:39;20.10;99.90
61004;DHT22;46889;37.310;13.582;2024-03-17T09:28:05;20.00;99.90
61004;DHT22;46889;37.310;13.582;2024-03-17T09:30:33;19.90;99.90
61004;DHT22;46889;37.310;13.582;2024-03-17T09:32:59;19.80;99.90
61004;DHT22;46889;37.310;13.582;2024-03-17T09:35:25;19.40;99.90
61004;DHT22;46889;37.310;13.582;2024-03-17T09:37:51;19.70;99.90
61004;DHT22;46889;37.310;13.582;2024-03-17T09:40:17;20.10;99.90
61004;DHT22;46889;37.310;13.582;2024-03-17T09:42:43;20.20;99.90
61004;DHT22;46889;37.310;13.582;2024-03-17T09:45:10;20.50;99.90
61004;DHT22;46889;37.310;13.582;2024-03-17T09:47:39;20.70;99.90
61004;DHT22;46889;37.310;13.582;2024-03-17T09:50:13;20.60;99.90
61004;DHT22;46889;37.310;13.582;2024-03-17T09:52:45;20.30;99.90
61004;DHT22;46889;37.310;13.582;2024-03-17T09:55:17;20.30;99.90
61004;DHT22;46889;37.310;13.582;2024-03-17T09:57:44;20.30;99.90
61004;DHT22;46889;37.310;13.582;2024-03-17T10:00:13;20.30;99.90
61004;DHT22;46889;37.310;13.582;2024-03-17T10:02:44;19.80;99.90
61004;DHT22;46889;37.310;13.582;2024-03-17T10:05:24;19.90;99.90
61004;DHT22;46889;37.310;13.582;2024-03-17T10:07:51;19.90;99.90
61004;DHT22;46889;37.310;13.582;2024-03-17T10:10:22;19.90;99.90
61004;DHT22;46889;37.310;13.582;2024-03-17T10:12:52;19.80;99.90
61004;DHT22;46889;37.310;13.582;2024-03-17T10:15:20;19.60;99.90
61004;DHT22;46889;37.310;13.582;2024-03-17T10:17:47;19.40;99.90
61004;DHT22;46889;37.310;13.582;2024-03-17T10:20:20;19.50;99.90
61004;DHT22;46889;37.310;13.582;2024-03-17T10:23:00;19.60;99.90
61004;DHT22;46889;37.310;13.582;2024-03-17T10:25:28;19.60;99.90
61004;DHT22;46889;37.310;13.582;2024-03-17T10:27:55;19.70;99.90
61004;DHT22;46889;37.310;13.582;2024-03-17T10:30:23;19.60;99.90
61004;DHT22;46889;37.310;13.582;2024-03-17T10:32:58;19.50;99.90
61004;DHT22;46889;37.310;13.582;2024-03-17T10:35:33;19.30;99.90
61004;DHT22;46889;37.310;13.582;2024-03-17T10:38:04;19.50;99.90
61004;DHT22;46889;37.310;13.582;2024-03-17T10:40:32;19.90;99.90
61004;DHT22;46889;37.310;13.582;2024-03-17T10:43:00;19.90;99.90
61004;DHT22;46889;37.310;13.582;2024-03-17T10:45:27;19.80;99.90
61004;DHT22;46889;37.310;13.582;2024-03-17T10:48:00;19.80;99.90
61004;DHT22;46889;37.310;13.582;2024-03-17T10:50:36;20.00;99.90
61004;DHT22;46889;37.310;13.582;2024-03-17T10:53:04;19.80;99.90
61004;DHT22;46889;37.310;13.582;2024-03-17T10:55:44;19.70;99.90
61004;DHT22;46889;37.310;13.582;2024-03-17T10:58:38;19.50;99.90
61004;DHT22;46889;37.310;13.582;2024-03-17T11:01:11;19.80;99.90
61004;DHT22;46889;37.310;13.582;2024-03-17T11:03:39;19.70;99.90
61004;DHT22;46889;37.310;13.582;2024-03-17T11:06:06;19.50;99.90
61004;DHT22;46889;37.310;13.582;2024-03-17T11:08:34;19.60;99.90
61004;DHT22;46889;37.310;13.582;2024-03-17T11:11:02;19.50;99.90
61004;DHT22;46889;37.310;13.582;2024-03-17T11:13:31;19.50;99.90
61004;DHT22;46889;37.310;13.582;2024-03-17T11:15:59;19.60;99.90
61004;DHT22;46889;37.310;13.582;2024-03-17T11:18:50;19.70;99.90
61004;DHT22;46889;37.310;13.582;2024-03-17T11:21:21;19.60;99.90
61004;DHT22;46889;37.310;13.582;2024-03-17T11:23:58;19.70;99.90
61004;DHT22;46889;37.310;13.582;2024-03-17T11:26:34;19.80;99.90
61004;DHT22;46889;37.310;13.582;2024-03-17T11:29:04;20.10;99.90
61004;DHT22;46889;37.310;13.582;2024-03-17T11:31:45;20.20;99.90
61004;DHT22;46889;37.310;13.582;2024-03-17T11:34:33;20.40;99.90
61004;DHT22;46889;37.310;13.582;2024-03-17T11:37:03;20.80;99.90
61004;DHT22;46889;37.310;13.582;2024-03-17T11:39:54;20.70;99.90
61004;DHT22;46889;37.310;13.582;2024-03-17T11:42:25;20.70;99.90
61004;DHT22;46889;37.310;13.582;2024-03-17T11:45:02;20.40;99.90
61004;DHT22;46889;37.310;13.582;2024-03-17T11:47:40;20.70;99.90
61004;DHT22;46889;37.310;13.582;2024-03-17T11:50:08;20.60;99.90
61004;DHT22;46889;37.310;13.582;2024-03-17T11:52:38;20.40;99.90
61004;DHT22;46889;37.310;13.582;2024-03-17T11:55:18;20.20;99.90
61004;DHT22;46889;37.310;13.582;2024-03-17T11:57:46;20.50;99.90
61004;DHT22;46889;37.310;13.582;2024-03-17T12:00:21;20.40;99.90
61004;DHT22;46889;37.310;13.582;2024-03-17T12:02:49;20.60;99.90
61004;DHT22;46889;37.310;13.582;2024-03-17T12:05:15;20.70;99.90
61004;DHT22;46889;37.310;13.582;2024-03-17T12:07:45;20.10;99.90
61004;DHT22;46889;37.310;13.582;2024-03-17T12:10:13;19.90;99.90
61004;DHT22;46889;37.310;13.582;2024-03-17T12:12:40;19.90;99.90
61004;DHT22;46889;37.310;13.582;2024-03-17T12:15:19;19.90;99.90
61004;DHT22;46889;37.310;13.582;2024-03-17T12:17:46;20.20;99.90
61004;DHT22;46889;37.310;13.582;2024-03-17T12:20:19;20.40;99.90
61004;DHT22;46889;37.310;13.582;2024-03-17T12:22:47;20.70;99.90
61004;DHT22;46889;37.310;13.582;2024-03-17T12:25:18;20.90;99.90
61004;DHT22;46889;37.310;13.582;2024-03-17T12:27:45;21.10;99.90
61004;DHT22;46889;37.310;13.582;2024-03-17T12:30:15;20.70;99.90
61004;DHT22;46889;37.310;13.582;2024-03-17T12:32:43;20.20;99.90
61004;DHT22;46889;37.310;13.582;2024-03-17T12:35:17;20.30;99.90
61004;DHT22;46889;37.310;13.582;2024-03-17T12:37:44;20.60;99.90
61004;DHT22;46889;37.310;13.582;2024-03-17T12:40:22;20.90;99.90
61004;DHT22;46889;37.310;13.582;2024-03-17T12:42:50;20.90;99.90
61004;DHT22;46889;37.310;13.582;2024-03-17T12:45:22;20.30;99.90
61004;DHT22;46889;37.310;13.582;2024-03-17T12:47:49;20.00;99.90
61004;DHT22;46889;37.310;13.582;2024-03-17T12:50:16;19.80;99.90
61004;DHT22;46889;37.310;13.582;2024-03-17T12:52:55;20.10;99.90
61004;DHT22;46889;37.310;13.582;2024-03-17T12:55:22;20.40;99.90
61004;DHT22;46889;37.310;13.582;2024-03-17T12:58:08;20.50;99.90
61004;DHT22;46889;37.310;13.582;2024-03-17T13:01:06;20.60;99.90
61004;DHT22;46889;37.310;13.582;2024-03-17T13:03:34;20.80;99.90
61004;DHT22;46889;37.310;13.582;2024-03-17T13:06:01;20.70;99.90
61004;DHT22;46889;37.310;13.582;2024-03-17T13:08:34;20.90;99.90
61004;DHT22;46889;37.310;13.582;2024-03-17T13:11:00;20.90;99.90
61004;DHT22;46889;37.310;13.582;2024-03-17T13:13:29;21.20;99.90
61004;DHT22;46889;37.310;13.582;2024-03-17T13:15:56;21.20;99.90
61004;DHT22;46889;37.310;13.582;2024-03-17T13:18:22;21.00;99.90
61004;DHT22;46889;37.310;13.582;2024-03-17T13:20:49;20.80;99.90
61004;DHT22;46889;37.310;13.582;2024-03-17T13:23:24;20.90;99.90
61004;DHT22;46889;37.310;13.582;2024-03-17T13:25:51;20.80;99.90
61004;DHT22;46889;37.310;13.582;2024-03-17T13:28:17;20.70;99.90
61004;DHT22;46889;37.310;13.582;2024-03-17T13:30:43;20.70;99.90
61004;DHT22;46889;37.310;13.582;2024-03-17T13:33:10;20.40;99.90
61004;DHT22;46889;37.310;13.582;2024-03-17T13:35:40;20.20;99.90
61004;DHT22;46889;37.310;13.582;2024-03-17T13:38:08;19.90;99.90
61004;DHT22;46889;37.310;13.582;2024-03-17T13:40:35;20.10;99.90
61004;DHT22;46889;37.310;13.582;2024-03-17T13:43:02;20.30;99.90
61004;DHT22;46889;37.310;13.582;2024-03-17T13:45:32;20.60;99.90
61004;DHT22;46889;37.310;13.582;2024-03-17T13:48:02;20.70;99.90
61004;DHT22;46889;37.310;13.582;2024-03-17T13:50:32;20.70;99.90
61004;DHT22;46889;37.310;13.582;2024-03-17T13:52:59;20.60;99.90
61004;DHT22;46889;37.310;13.582;2024-03-17T13:55:29;20.60;99.90
61004;DHT22;46889;37.310;13.582;2024-03-17T13:57:56;20.70;99.90
61004;DHT22;46889;37.310;13.582;2024-03-17T14:00:24;20.80;99.90
61004;DHT22;46889;37.310;13.582;2024-03-17T14:02:52;21.00;99.90
61004;DHT22;46889;37.310;13.582;2024-03-17T14:05:20;21.20;99.90
61004;DHT22;46889;37.310;13.582;2024-03-17T14:07:47;20.90;99.90
61004;DHT22;46889;37.310;13.582;2024-03-17T14:10:22;20.90;99.90
61004;DHT22;46889;37.310;13.582;2024-03-17T14:12:48;21.10;99.90
61004;DHT22;46889;37.310;13.582;2024-03-17T14:15:15;21.30;99.90
61004;DHT22;46889;37.310;13.582;2024-03-17T14:17:46;21.10;99.90
61004;DHT22;46889;37.310;13.582;2024-03-17T14:20:14;20.50;99.90
61004;DHT22;46889;37.310;13.582;2024-03-17T14:22:44;20.30;99.90
61004;DHT22;46889;37.310;13.582;2024-03-17T14:25:16;20.40;99.90
61004;DHT22;46889;37.310;13.582;2024-03-17T14:27:46;20.60;99.90
61004;DHT22;46889;37.310;13.582;2024-03-17T14:30:17;20.80;99.90
61004;DHT22;46889;37.310;13.582;2024-03-17T14:32:44;21.00;99.90
61004;DHT22;46889;37.310;13.582;2024-03-17T14:35:17;20.60;99.90
61004;DHT22;46889;37.310;13.582;2024-03-17T14:37:48;20.60;99.90
61004;DHT22;46889;37.310;13.582;2024-03-17T14:40:19;20.50;99.90
61004;DHT22;46889;37.310;13.582;2024-03-17T14:42:54;20.50;99.90
61004;DHT22;46889;37.310;13.582;2024-03-17T14:45:23;20.30;99.90
61004;DHT22;46889;37.310;13.582;2024-03-17T14:47:49;20.30;99.90
61004;DHT22;46889;37.310;13.582;2024-03-17T14:50:17;20.40;99.90
61004;DHT22;46889;37.310;13.582;2024-03-17T14:52:44;20.40;99.90
61004;DHT22;46889;37.310;13.582;2024-03-17T14:55:11;20.50;99.90
61004;DHT22;46889;37.310;13.582;2024-03-17T14:57:38;20.70;99.90
61004;DHT22;46889;37.310;13.582;2024-03-17T15:00:08;20.90;99.90
61004;DHT22;46889;37.310;13.582;2024-03-17T15:02:51;20.80;99.90
61004;DHT22;46889;37.310;13.582;2024-03-17T15:05:19;20.80;99.90
61004;DHT22;46889;37.310;13.582;2024-03-17T15:07:47;20.60;99.90
61004;DHT22;46889;37.310;13.582;2024-03-17T15:10:14;20.50;99.90
61004;DHT22;46889;37.310;13.582;2024-03-17T15:12:41;20.10;99.90
61004;DHT22;46889;37.310;13.582;2024-03-17T15:15:08;20.00;99.90
61004;DHT22;46889;37.310;13.582;2024-03-17T15:17:36;19.90;99.90
61004;DHT22;46889;37.310;13.582;2024-03-17T15:20:11;19.90;99.90
61004;DHT22;46889;37.310;13.582;2024-03-17T15:22:46;19.90;99.90
61004;DHT22;46889;37.310;13.582;2024-03-17T15:25:13;19.90;99.90
61004;DHT22;46889;37.310;13.582;2024-03-17T15:27:43;20.00;99.90